Terminal Aerodrome Forecast
Issued by NWS

Home | Current Version | Previous Version | Text Only | Print | Product List | Glossary On
Versions: 1 2 3 4 5 6 7 8 9 10 11 12 13 14 15 16 17 18
000
FTUS44 KLZK 021100
TAFLLQ
TAF
KLLQ 021120Z 0212/0312 05005KT 5SM -SHRA BR OVC004
      TEMPO 0212/0214 2SM -RA BR
     FM021800 08008KT P6SM VCSH OVC005
     FM030100 VRB03KT 4SM BR VCSH OVC004=

USA.gov is the U.S. government's official web portal to all federal, state and local government web resources and services.